x

8413320 - Bar Harbor, Me (atgm1) Weather Station

3:18am - Mon 20th Nov 2017 All times are EST. -5 hours from GMT.

  • Wind
    15mph, 21mph gusts
  • Sea Temp 49°f
  • Air Temp 33°f
  • Sea Pressure 1000.1mb
  • 8413320 - Bar Harbor, Me
  • 8413320 - Bar Harbor, Me

More Historic Weather Station data

Upgrade to MSW Pro to gain access to the past 30 days of data for over 8000 Wavebouys and Weather Stations around the globe.

Join

Comparision Forecast

View Surf forecast
   
Mon 11/20 3:18am 15 21 mph 1000.1mb 49f 33f
3:12am 15 21 mph 1000mb 49f 34f
3:06am 15 24 mph 999.8mb 49f 34f
3:00am 15 23 mph 999.8mb 49f 34f
2:54am 15 20 mph 999.7mb 49f 34f
2:48am 17 23 mph 999.7mb 49f 34f
2:42am 17 21 mph 999.8mb 49f 34f
2:36am 15 24 mph 999.7mb 49f 34f
2:30am 15 23 mph 999.5mb 49f 34f
2:24am 14 23 mph 999.6mb 49f 34f
2:18am 14 21 mph 999.5mb 49f 34f
2:12am 14 18 mph 999.6mb 49f 34f
2:06am 15 23 mph 999.7mb 49f 34f
2:00am 16 25 mph 999.7mb 49f 34f
1:54am 15 20 mph 999.5mb 49f 34f
1:48am 18 25 mph 999.3mb 49f 34f
1:42am 21 26 mph 999.1mb 49f 34f
1:36am 18 23 mph 999.1mb 49f 34f
1:30am 18 26 mph 999.2mb 49f 34f
1:24am 17 22 mph 999.2mb 49f 34f
1:18am 14 22 mph 999mb 49f 34f
1:12am 18 24 mph 998.9mb 49f 34f
1:06am 17 23 mph 998.8mb 49f 35f
1:00am 16 23 mph 998.8mb 49f 34f
12:54am 16 24 mph 998.7mb 49f 34f
12:48am 16 22 mph 998.7mb 49f -
12:42am 15 23 mph 998.8mb 49f -
12:36am 15 21 mph 998.6mb 50f -
12:30am 18 24 mph 998.8mb 50f 35f
12:24am 20 24 mph 998.7mb 50f 35f
12:18am 16 20 mph 998.8mb 50f 34f
12:12am 11 17 mph 998.9mb 50f 34f
12:06am 17 22 mph 998.6mb 50f 34f
12:00am 17 22 mph 998.4mb 50f 34f
Sun 11/19 11:54pm 14 18 mph 998.5mb 50f 34f
11:48pm 13 21 mph 998.6mb 50f 34f
11:42pm 13 21 mph 998.6mb 50f 34f
11:36pm 11 17 mph 998.5mb 50f 34f
11:30pm 16 22 mph 998.3mb 50f 34f
11:24pm 21 24 mph 997.9mb 50f 35f
11:18pm 18 22 mph 997.9mb 50f 35f
11:12pm 21 26 mph 998mb 50f 34f
11:06pm 20 23 mph 997.9mb 50f 34f
11:00pm 16 22 mph 998mb 50f 34f
10:54pm 15 22 mph 998mb 50f 34f
10:48pm 13 17 mph 998mb 50f 34f
10:42pm 10 17 mph 998mb 50f 35f
10:36pm 16 23 mph 997.8mb 50f 35f
10:30pm 21 30 mph 997.4mb 50f 35f
10:24pm 18 24 mph 997.3mb 50f 35f
10:18pm 20 25 mph 997.2mb 50f 35f
10:12pm 15 25 mph 997mb 50f 35f
10:06pm 17 23 mph 996.8mb 50f 35f
10:00pm 15 25 mph 996.7mb 49f 35f
9:54pm 16 24 mph 996.4mb 49f 35f
9:48pm 16 26 mph 996.3mb 50f 35f
9:42pm 21 29 mph 996mb 50f 35f
9:36pm 18 30 mph 995.9mb 50f 35f
9:30pm 21 26 mph 995.8mb 50f 35f
9:24pm 18 29 mph 995.7mb 50f 35f
9:18pm 21 26 mph 995.3mb 50f 35f
9:12pm 18 28 mph 995mb 50f 35f
9:06pm 16 24 mph 995.2mb 50f 35f
9:00pm 20 29 mph 995.1mb 50f 35f
8:54pm 17 24 mph 994.9mb 50f 35f
8:48pm 16 24 mph 994.7mb 50f 35f
8:42pm 17 24 mph 994.4mb 50f 36f
8:36pm 17 24 mph 994.4mb 50f 36f
8:30pm 18 25 mph 994.2mb 50f 36f
8:24pm 21 36 mph 994.1mb 50f 36f
8:18pm 16 26 mph 994.1mb 50f 36f
8:12pm 16 28 mph 994.1mb 50f 36f
8:06pm 23 32 mph 993.6mb 50f 36f
8:00pm 22 29 mph 993.5mb 50f 36f
7:48pm 20 29 mph 993.1mb 50f 37f
7:42pm 20 28 mph 992.9mb 50f 37f
7:36pm 20 29 mph 992.6mb 50f 37f
7:30pm 17 25 mph 992.5mb 50f 37f
7:24pm 21 29 mph 992.2mb 50f 38f
7:18pm 21 28 mph 992mb 50f 38f
7:12pm 20 29 mph 991.7mb 50f 38f
7:06pm 17 26 mph 991.5mb 50f 38f
7:00pm 18 30 mph 991.5mb 50f 39f
6:54pm 23 28 mph 991.3mb 50f 39f
6:48pm 21 29 mph 991mb 50f 40f
6:42pm 20 26 mph 990.7mb 50f 40f
6:36pm 21 28 mph 990.4mb 51f 40f
6:30pm 17 25 mph 990.4mb 51f 40f
6:24pm 16 25 mph 990.1mb 51f 41f
6:18pm 14 23 mph 989.9mb 51f 41f
6:12pm 16 26 mph 989.5mb 51f 42f
6:06pm 18 28 mph 989.2mb 51f 42f
6:00pm 18 24 mph 989.1mb 51f 42f
5:54pm 14 21 mph 988.8mb 51f 42f
5:48pm 16 25 mph 988.6mb 51f 43f
5:42pm 22 30 mph 988.3mb 51f 43f
5:36pm 22 31 mph 987.9mb 51f 43f
5:30pm 20 23 mph 987.9mb 51f 44f
5:24pm 18 36 mph 987.7mb 51f 45f
5:18pm 24 33 mph 987.3mb 51f 45f
5:12pm 21 28 mph 987.1mb 51f 46f
5:06pm 21 25 mph 987mb 51f 46f
5:00pm 18 24 mph 986.8mb 51f 46f
4:54pm 16 22 mph 986.6mb 51f 47f
4:48pm 17 25 mph 986.3mb 51f 47f
4:42pm 13 18 mph 986.1mb 51f 48f
4:36pm 13 26 mph 985.7mb 51f 49f
4:30pm 22 32 mph 985.2mb 51f 50f
4:24pm 24 30 mph 984.6mb 50f 50f
4:18pm 18 31 mph 984.4mb 50f 52f
4:12pm 20 26 mph 983.8mb 50f 53f
4:06pm 14 17 mph 983.6mb 50f 55f
4:00pm 13 20 mph 983.4mb 50f 55f
3:54pm 13 23 mph 983.4mb 50f 55f
3:48pm 13 22 mph 983.2mb 50f 55f
3:42pm 17 25 mph 983.1mb 50f 55f
3:36pm 10 21 mph 983.1mb 50f 55f
3:30pm 13 21 mph 983mb 50f 55f
3:24pm 13 21 mph 983mb 50f 55f
3:18pm 13 20 mph 982.9mb 50f 56f
3:12pm 11 23 mph 982.7mb 50f 56f
3:06pm 9 23 mph 983mb 50f 56f
3:00pm 14 23 mph 983mb 50f 56f
2:54pm 15 28 mph 982.8mb 50f 56f
2:48pm 14 25 mph 982.8mb 50f 56f
2:42pm 15 24 mph 982.9mb 50f 56f
2:36pm 15 29 mph 982.8mb 50f 56f
2:30pm 10 21 mph 982.9mb 50f 56f
2:24pm 10 18 mph 982.9mb 50f 57f
2:18pm 11 26 mph 982.8mb 50f 57f
2:12pm 14 30 mph 982.8mb 50f 57f
2:06pm 11 25 mph 982.8mb 50f 57f
2:00pm 13 22 mph 982.8mb 50f 57f
1:54pm 10 21 mph 983mb 50f 57f
1:48pm 10 17 mph 983.1mb 50f 57f
1:42pm 11 28 mph 983.1mb 50f 57f
1:36pm 13 23 mph 983mb 50f 57f
1:30pm 11 25 mph 983.1mb 50f 56f
1:24pm 11 31 mph 983mb 50f 56f
1:18pm 11 28 mph 983.2mb 50f 56f
1:12pm 15 28 mph 983.3mb 50f 57f
1:06pm 14 28 mph 983.4mb 50f 57f
1:00pm 11 20 mph 983.6mb 50f 57f
12:54pm 14 24 mph 983.9mb 50f 57f
12:48pm 10 24 mph 983.9mb 50f 57f
12:42pm 11 26 mph 984mb 50f 58f
12:36pm 16 30 mph 984.2mb 50f 58f
12:30pm 16 25 mph 984.3mb 50f 58f
12:24pm 14 32 mph 984.5mb 50f 58f
12:18pm 16 24 mph 984.6mb 50f 58f
12:12pm 15 33 mph 984.5mb 50f 58f
12:06pm 17 39 mph 984.6mb 50f 58f
12:00pm 14 28 mph 984.9mb 50f 58f
11:54am 18 29 mph 985.4mb 50f 58f
11:48am 14 34 mph 985.5mb 50f 58f
11:42am 16 30 mph 985.3mb 50f 58f
11:36am 14 28 mph 985.4mb 50f 58f
11:30am 14 30 mph 985.6mb 50f 58f
11:24am 18 28 mph 985.9mb 50f 58f
11:18am 11 29 mph 985.9mb 50f 57f
11:12am 13 26 mph 985.9mb 50f 57f
11:06am 15 28 mph 986mb 50f 57f
11:00am 15 26 mph 986.2mb 50f 57f
10:54am 13 24 mph 986.5mb 50f 57f
10:48am 9 28 mph 986.8mb 50f 57f
10:42am 15 24 mph 986.7mb 50f 57f
10:36am 13 22 mph 986.7mb 50f 57f
10:30am 11 23 mph 987.1mb 50f 57f
10:24am 14 24 mph 987.3mb 50f 57f
10:18am 10 24 mph 987.3mb 50f 57f
10:12am 15 29 mph 987.3mb 50f 57f
10:06am 11 23 mph 987.6mb 50f 57f
10:00am 10 22 mph 987.8mb 50f 57f
Fri 11/17 1:30pm 34 43 mph 1003.6mb 50f 38f
1:24pm 32 39 mph 1003.5mb 50f 38f
1:18pm 29 36 mph 1003.5mb 50f 39f
1:12pm 29 40 mph 1003.5mb 50f 39f
1:06pm 34 39 mph 1003.3mb 50f 39f
1:00pm 32 38 mph 1003.3mb 50f 39f
12:54pm 29 36 mph 1003.3mb 50f 40f
12:48pm 31 38 mph 1003.2mb 50f 39f
12:42pm 25 37 mph 1003.2mb 50f 40f
12:36pm 24 36 mph 1003.2mb 50f 40f
12:30pm 26 37 mph 1003.2mb 50f 40f
12:24pm 26 37 mph 1003.1mb 50f 40f
12:18pm 28 39 mph 1002.9mb 50f 40f
12:12pm 26 40 mph 1002.9mb 50f 40f
12:06pm 30 37 mph 1002.8mb 50f 41f
12:00pm 28 37 mph 1002.8mb 50f 41f
11:54am 32 39 mph 1002.8mb 50f 41f
11:48am 29 39 mph 1002.8mb 50f 41f
11:42am 30 38 mph 1002.6mb 50f 41f
11:36am 30 33 mph 1002.5mb 50f 42f
11:30am 30 37 mph 1002.5mb 50f 42f
11:24am 30 37 mph 1002.2mb 50f 42f
11:18am 31 38 mph 1002.1mb 50f 42f
11:12am 28 38 mph 1002.2mb 50f 43f
11:06am 28 37 mph 1002.2mb 50f 43f
11:00am 28 36 mph 1002.2mb 50f 43f
10:54am 28 37 mph 1002.3mb 50f 43f
10:48am 31 39 mph 1002.2mb 50f 42f
10:42am 26 37 mph 1002.4mb 50f 43f
10:36am 30 37 mph 1002.2mb 50f 43f
10:30am 28 34 mph 1002.3mb 50f 42f
10:24am 25 32 mph 1002.3mb 50f 42f
10:18am 26 36 mph 1002.2mb 50f 42f
10:12am 28 38 mph 1002.3mb 50f 42f
10:06am 28 34 mph 1002.1mb 50f 42f
10:00am 25 30 mph 1002.2mb 50f 42f
9:54am 29 37 mph 1002.2mb 50f 43f
9:48am 28 37 mph 1002.1mb 50f 42f
9:42am 29 38 mph 1001.8mb 50f 43f
9:36am 24 34 mph 1001.9mb 50f 43f
9:30am 24 31 mph 1001.9mb 50f 43f
9:24am 26 32 mph 1001.8mb 50f 43f
9:18am 20 29 mph 1002mb 50f 42f
9:12am 24 31 mph 1001.9mb 50f 42f
9:06am 21 26 mph 1001.8mb 50f 43f
9:00am 20 25 mph 1001.9mb 50f 43f
8:54am 21 26 mph 1001.8mb 50f 42f
8:48am 17 28 mph 1001.8mb 50f 42f
8:42am 22 28 mph 1001.7mb 50f 42f
8:36am 18 26 mph 1001.6mb 50f 42f
8:30am 18 26 mph 1001.6mb 50f 42f
8:24am 22 29 mph 1001.5mb 51f 42f
8:18am 20 29 mph 1001.4mb 51f 42f
8:12am 18 25 mph 1001.4mb 51f 42f
8:06am 18 23 mph 1001.3mb 51f 41f
8:00am 18 24 mph 1001.3mb 51f 41f
7:54am 17 24 mph 1001.2mb 51f 41f
7:48am 17 24 mph 1001.2mb 51f 41f
7:42am 18 25 mph 1001.1mb 51f 41f
7:36am 17 28 mph 1000.9mb 51f 41f
7:30am 16 24 mph 1000.9mb 51f 40f
7:24am 15 26 mph 1000.9mb 51f 40f
7:18am 16 23 mph 1000.8mb 51f 40f
7:12am 16 22 mph 1000.9mb 51f 40f
7:06am 16 22 mph 1000.8mb 51f 40f
7:00am 14 24 mph 1000.8mb 51f 40f
6:54am 15 21 mph 1000.7mb 51f 40f
6:48am 14 22 mph 1000.6mb 51f 40f
6:42am 16 21 mph 1000.6mb 51f 40f
6:36am 15 22 mph 1000.5mb 51f 40f
6:30am 15 25 mph 1000.5mb 51f 40f
6:24am 15 20 mph 1000.4mb 51f 40f
6:18am 14 20 mph 1000.3mb 51f 40f
6:12am 16 25 mph 1000.2mb 51f 40f
6:06am 16 29 mph 1000.1mb 51f 40f
6:00am 13 21 mph 1000.1mb 51f 40f
5:54am 16 21 mph 1000mb 51f 40f
5:48am 11 20 mph 1000mb 51f 40f
5:42am 13 21 mph 1000mb 51f 40f
5:36am 16 25 mph 999.9mb 51f 40f
5:30am 16 25 mph 999.8mb 51f 40f
5:24am 20 26 mph 999.7mb 51f 40f
5:18am 17 23 mph 999.6mb 51f 40f
5:12am 13 25 mph 999.7mb 51f 40f
5:06am 16 23 mph 999.6mb 51f 40f
5:00am 14 23 mph 999.6mb 51f 40f
4:54am 17 23 mph 999.6mb 51f 40f
4:48am 13 22 mph 999.6mb 51f 40f
4:42am 15 21 mph 999.6mb 51f 40f
4:36am 15 25 mph 999.5mb 51f 40f
4:30am 15 23 mph 999.4mb 51f 40f
4:24am 16 23 mph 999.4mb 50f 40f
4:18am 14 23 mph 999.4mb 50f 40f
4:12am 15 23 mph 999.3mb 50f 40f
4:06am 15 23 mph 999.2mb 50f 40f
4:00am 11 17 mph 999.2mb 50f 40f
3:54am 15 22 mph 999.2mb 50f 39f
3:48am 14 25 mph 999.2mb 50f 39f
3:42am 15 26 mph 999.2mb 50f 39f
3:36am 18 26 mph 999.2mb 50f 39f
3:30am 16 22 mph 999.2mb 50f 39f
3:24am 16 22 mph 999.2mb 50f 39f
3:18am 15 22 mph 999.2mb 50f 39f
3:12am 15 22 mph 999.3mb 50f 39f
3:06am 14 20 mph 999.2mb 50f 39f
3:00am 15 22 mph 999.2mb 50f 38f
2:54am 13 21 mph 999.3mb 50f 38f
2:48am 14 18 mph 999.3mb 50f 38f
2:42am 14 20 mph 999.4mb 50f 38f
2:36am 14 18 mph 999.5mb 50f 38f
2:30am 14 18 mph 999.5mb 50f 38f
2:24am 17 21 mph 999.5mb 50f 38f
2:18am 18 22 mph 999.5mb 50f 38f
2:12am 17 22 mph 999.6mb 50f 38f
2:06am 17 22 mph 999.6mb 50f 38f
2:00am 20 23 mph 999.6mb 50f 38f
1:54am 15 22 mph 999.6mb 50f 38f
1:48am 21 23 mph 999.5mb 50f 38f
1:42am 20 22 mph 999.5mb 50f 38f
1:36am 16 21 mph 999.5mb 50f 38f
1:30am 16 21 mph 999.6mb 50f 38f
1:24am 21 25 mph 999.6mb 50f 38f
1:18am 15 22 mph 999.7mb 50f 38f
1:12am 17 23 mph 999.6mb 50f 38f
1:06am 13 18 mph 999.4mb 50f 38f
1:00am 15 20 mph 999.4mb 50f 39f
12:54am 17 21 mph 999.3mb 50f 39f
12:48am 15 21 mph 999.3mb 50f 39f
12:42am 18 22 mph 999.2mb 50f 39f
12:36am 17 22 mph 999.2mb 50f 39f
12:30am 17 22 mph 999.2mb 50f 39f
12:24am 18 24 mph 999.2mb 50f 39f
12:18am 20 24 mph 999.2mb 50f 39f
12:12am 20 26 mph 999.2mb 50f 39f
12:06am 21 26 mph 999.3mb 50f 39f
12:00am 18 23 mph 999.4mb 50f 39f
Thu 11/16 11:54pm 18 24 mph 999.4mb 50f 39f
11:48pm 18 24 mph 999.5mb 50f 39f
11:42pm 17 24 mph 999.6mb 50f 40f
11:36pm 22 25 mph 999.7mb 50f 39f
11:30pm 22 25 mph 999.8mb 50f 40f
11:24pm 20 24 mph 999.9mb 51f 40f
11:18pm 18 23 mph 1000mb 51f 40f
11:12pm 21 23 mph 1000mb 51f 40f
11:06pm 17 22 mph 1000.2mb 51f 40f
11:00pm 13 17 mph 1000.3mb 51f 41f
10:54pm 11 16 mph 1000.5mb 50f 40f
10:48pm 10 14 mph 1000.6mb 50f 40f
10:42pm 9 11 mph 1000.8mb 50f 41f
10:36pm 8 13 mph 1001mb 51f 41f
10:30pm 6 10 mph 1001.2mb 51f 41f
10:24pm 8 11 mph 1001.4mb 50f 41f
10:18pm 10 14 mph 1001.6mb 51f 41f
10:12pm 10 13 mph 1001.7mb 51f 41f
10:06pm 7 13 mph 1001.8mb 51f 41f
10:00pm 10 15 mph 1001.9mb 51f 41f
9:54pm 11 14 mph 1002mb 51f 41f
9:48pm 10 13 mph 1002.2mb 51f 42f
9:42pm 10 15 mph 1002.5mb 51f 41f
9:36pm 13 17 mph 1002.6mb 51f 41f
9:30pm 11 14 mph 1002.8mb 51f 41f
9:24pm 13 15 mph 1002.9mb 51f 41f
9:18pm 10 14 mph 1003.2mb 51f 42f
9:12pm 11 16 mph 1003.4mb 51f 41f
9:06pm 11 14 mph 1003.4mb 51f 42f
9:00pm 13 14 mph 1003.5mb 51f 42f
8:54pm 11 14 mph 1003.5mb 51f 42f
8:48pm 10 13 mph 1003.8mb 51f 42f
8:42pm 8 11 mph 1003.8mb 51f 42f
8:36pm 8 13 mph 1003.9mb 51f 42f
8:30pm 10 11 mph 1003.9mb 51f 42f
8:24pm 10 14 mph 1003.9mb 51f 43f
8:18pm 11 14 mph 1004mb 51f 43f
8:12pm 10 14 mph 1004.2mb 50f 43f
8:06pm 11 14 mph 1004.2mb 50f 42f
8:00pm 13 16 mph 1004.3mb 50f 42f
7:54pm 9 11 mph 1004.4mb 50f 43f
7:48pm 9 13 mph 1004.6mb 50f 43f
7:42pm 8 9 mph 1004.8mb 50f 43f
7:36pm 7 9 mph 1004.9mb 50f 43f
7:30pm 9 10 mph 1005mb 50f 43f
7:24pm 8 9 mph 1005.1mb 50f 44f
7:18pm 7 8 mph 1005.5mb 51f 43f
7:12pm 6 8 mph 1005.6mb 51f 43f
7:06pm 5 6 mph 1005.8mb 51f 43f
7:00pm 2 5 mph 1006mb 51f 43f
6:54pm 3 6 mph 1006mb 51f 43f
6:48pm 5 8 mph 1006mb 51f 44f
6:42pm 7 8 mph 1006mb 51f 44f
6:36pm 7 11 mph 1006mb 51f 44f
6:30pm 9 11 mph 1005.8mb 51f 44f
6:24pm 9 11 mph 1005.8mb 51f 44f
6:18pm 9 11 mph 1005.8mb 51f 44f
6:12pm 8 11 mph 1005.7mb 50f 44f
6:06pm 8 10 mph 1005.8mb 50f 44f
6:00pm 8 10 mph 1005.9mb 50f 45f
5:54pm 7 9 mph 1006.2mb 50f 45f
5:48pm 7 8 mph 1006.4mb 50f 45f
5:42pm 7 8 mph 1006.4mb 50f 45f
5:36pm 6 6 mph 1006.6mb 50f 45f
5:30pm 5 6 mph 1006.7mb 50f 45f
5:18pm 5 5 mph 1007.1mb 50f 45f
5:12pm 3 5 mph 1007.2mb 50f 45f
5:06pm 5 5 mph 1007mb 50f 45f
4:54pm 2 3 mph 1007.5mb 50f 45f
4:48pm 2 2 mph 1007.7mb 50f 45f
4:36pm 1 2 mph 1007.8mb 50f 45f
4:30pm 2 2 mph 1007.9mb 50f 45f
4:24pm 2 3 mph 1008.1mb 50f 46f
4:18pm 2 3 mph 1008.3mb 50f 46f
4:12pm 3 5 mph 1008.5mb 50f 46f
4:06pm 2 5 mph 1008.8mb 50f 46f
4:00pm 2 6 mph 1008.8mb 50f 46f
3:48pm 3 6 mph 1008.8mb 50f 46f
3:42pm 3 6 mph 1008.7mb 50f 46f
3:36pm 2 5 mph 1008.8mb 50f 46f
3:30pm 2 7 mph 1008.7mb 50f 46f
3:18pm 6 8 mph 1008.6mb 50f 46f
3:12pm 6 8 mph 1008.6mb 50f 46f
3:06pm 7 8 mph 1008.6mb 50f 46f
3:00pm 6 9 mph 1008.6mb 50f 46f
2:54pm 6 10 mph 1009mb 50f 46f
2:48pm 7 10 mph 1009.2mb 50f 46f
2:42pm 8 11 mph 1009mb 50f 46f
2:24pm 7 9 mph 1009.2mb 50f 46f
2:12pm 8 11 mph 1009.3mb 50f 46f
2:06pm 3 8 mph 1009.7mb 50f 47f
1:48pm 8 11 mph 1010.1mb 50f 46f
1:36pm 3 10 mph 1010.5mb 50f 46f
1:12pm 7 10 mph 1011.2mb 50f 46f
1:06pm 8 13 mph 1011.2mb 50f 46f
12:42pm 6 9 mph 1011.9mb 50f 46f
12:36pm 5 11 mph 1012.1mb 50f 46f
12:30pm 6 10 mph 1012.1mb 50f 46f
12:24pm 7 9 mph 1012.2mb 50f 46f
12:18pm 5 11 mph 1012.3mb 50f 46f
12:12pm 8 13 mph 1012.3mb 50f 46f
12:06pm 10 15 mph 1012.3mb 50f 45f
12:00pm 9 16 mph 1012.4mb 50f 45f
11:48am 11 16 mph 1012.6mb 50f 44f
11:42am 15 21 mph 1012.6mb 50f 44f
11:36am 14 17 mph 1012.9mb 50f 44f
11:30am 15 20 mph 1012.9mb 50f 44f
11:24am 13 18 mph 1013mb 50f 44f
11:18am 15 18 mph 1013.3mb 50f 44f
11:12am 16 18 mph 1013.3mb 50f 44f
11:00am 15 18 mph 1013.7mb 50f 43f
10:54am 15 18 mph 1013.9mb 50f 43f
10:48am 15 18 mph 1014mb 50f 43f
10:42am 14 15 mph 1014.3mb 50f 43f
10:24am 10 13 mph 1014.8mb 50f 42f
10:00am 6 8 mph 1015.4mb 50f 42f
9:48am 7 8 mph 1015.7mb 50f 41f